sensor_id;sensor_type;location;lat;lon;timestamp;pressure;altitude;pressure_sealevel;temperature;humidity
78431;BME280;67727;50.236;22.452;2023-06-24T00:02:02;99604.76;;;20.40;79.80
78431;BME280;67727;50.236;22.452;2023-06-24T00:04:29;99603.94;;;20.42;79.74
78431;BME280;67727;50.236;22.452;2023-06-24T00:06:56;99600.09;;;20.41;79.62
78431;BME280;67727;50.236;22.452;2023-06-24T00:09:26;99597.47;;;20.39;79.69
78431;BME280;67727;50.236;22.452;2023-06-24T00:11:57;99596.10;;;20.37;79.80
78431;BME280;67727;50.236;22.452;2023-06-24T00:14:27;99597.31;;;20.35;79.80
78431;BME280;67727;50.236;22.452;2023-06-24T00:16:55;99596.80;;;20.34;80.11
78431;BME280;67727;50.236;22.452;2023-06-24T00:19:25;99593.31;;;20.32;80.39
78431;BME280;67727;50.236;22.452;2023-06-24T00:21:53;99595.04;;;20.28;80.26
78431;BME280;67727;50.236;22.452;2023-06-24T00:24:21;99595.93;;;20.25;80.37
78431;BME280;67727;50.236;22.452;2023-06-24T00:26:56;99605.42;;;20.26;80.40
78431;BME280;67727;50.236;22.452;2023-06-24T00:29:23;99611.41;;;20.26;80.33
78431;BME280;67727;50.236;22.452;2023-06-24T00:31:50;99622.89;;;20.27;80.35
78431;BME280;67727;50.236;22.452;2023-06-24T00:34:17;99628.21;;;20.29;80.24
78431;BME280;67727;50.236;22.452;2023-06-24T00:36:46;99626.83;;;20.30;80.26
78431;BME280;67727;50.236;22.452;2023-06-24T00:39:16;99632.48;;;20.33;80.13
78431;BME280;67727;50.236;22.452;2023-06-24T00:41:43;99633.27;;;20.35;80.43
78431;BME280;67727;50.236;22.452;2023-06-24T00:44:10;99632.54;;;20.36;80.69
78431;BME280;67727;50.236;22.452;2023-06-24T00:46:38;99631.05;;;20.37;80.76
78431;BME280;67727;50.236;22.452;2023-06-24T00:49:06;99624.92;;;20.39;80.81
78431;BME280;67727;50.236;22.452;2023-06-24T00:51:33;99626.37;;;20.41;81.09
78431;BME280;67727;50.236;22.452;2023-06-24T00:54:03;99628.52;;;20.41;81.11
78431;BME280;67727;50.236;22.452;2023-06-24T00:56:35;99637.47;;;20.38;81.58
78431;BME280;67727;50.236;22.452;2023-06-24T00:59:06;99644.19;;;20.31;81.68
78431;BME280;67727;50.236;22.452;2023-06-24T01:01:37;99639.97;;;20.30;81.70
78431;BME280;67727;50.236;22.452;2023-06-24T01:04:04;99643.86;;;20.31;81.68
78431;BME280;67727;50.236;22.452;2023-06-24T01:06:32;99637.42;;;20.35;81.62
78431;BME280;67727;50.236;22.452;2023-06-24T01:09:00;99636.42;;;20.36;81.69
78431;BME280;67727;50.236;22.452;2023-06-24T01:11:27;99631.73;;;20.36;81.93
78431;BME280;67727;50.236;22.452;2023-06-24T01:13:54;99627.15;;;20.35;82.01
78431;BME280;67727;50.236;22.452;2023-06-24T01:16:45;99628.56;;;20.36;81.99
78431;BME280;67727;50.236;22.452;2023-06-24T01:19:51;99628.23;;;20.40;81.89
78431;BME280;67727;50.236;22.452;2023-06-24T01:33:50;99633.58;;;20.54;81.42
78431;BME280;67727;50.236;22.452;2023-06-24T01:36:23;99630.33;;;20.56;81.45
78431;BME280;67727;50.236;22.452;2023-06-24T01:38:55;99629.61;;;20.58;81.45
78431;BME280;67727;50.236;22.452;2023-06-24T01:41:26;99628.10;;;20.61;81.31
78431;BME280;67727;50.236;22.452;2023-06-24T01:43:59;99624.38;;;20.64;81.14
78431;BME280;67727;50.236;22.452;2023-06-24T01:46:29;99621.14;;;20.66;81.29
78431;BME280;67727;50.236;22.452;2023-06-24T01:48:59;99621.93;;;20.69;81.34
78431;BME280;67727;50.236;22.452;2023-06-24T01:51:29;99623.04;;;20.71;81.04
78431;BME280;67727;50.236;22.452;2023-06-24T01:54:02;99625.27;;;20.73;81.19
78431;BME280;67727;50.236;22.452;2023-06-24T01:56:30;99628.88;;;20.75;81.01
78431;BME280;67727;50.236;22.452;2023-06-24T01:59:00;99625.82;;;20.76;80.84
78431;BME280;67727;50.236;22.452;2023-06-24T02:01:28;99630.55;;;20.76;80.94
78431;BME280;67727;50.236;22.452;2023-06-24T02:03:57;99630.61;;;20.76;80.90
78431;BME280;67727;50.236;22.452;2023-06-24T02:06:26;99639.51;;;20.76;80.98
78431;BME280;67727;50.236;22.452;2023-06-24T02:08:56;99641.94;;;20.77;80.79
78431;BME280;67727;50.236;22.452;2023-06-24T02:11:25;99641.40;;;20.77;80.69
78431;BME280;67727;50.236;22.452;2023-06-24T02:13:55;99641.85;;;20.78;80.65
78431;BME280;67727;50.236;22.452;2023-06-24T02:16:24;99637.43;;;20.80;80.45
78431;BME280;67727;50.236;22.452;2023-06-24T02:18:52;99640.61;;;20.81;80.52
78431;BME280;67727;50.236;22.452;2023-06-24T02:21:22;99643.41;;;20.79;80.62
78431;BME280;67727;50.236;22.452;2023-06-24T02:23:51;99639.96;;;20.78;80.59
78431;BME280;67727;50.236;22.452;2023-06-24T02:26:19;99637.64;;;20.78;80.53
78431;BME280;67727;50.236;22.452;2023-06-24T02:28:48;99637.79;;;20.78;80.61
78431;BME280;67727;50.236;22.452;2023-06-24T02:31:16;99637.37;;;20.78;80.66
78431;BME280;67727;50.236;22.452;2023-06-24T02:33:44;99639.52;;;20.77;80.53
78431;BME280;67727;50.236;22.452;2023-06-24T02:36:11;99645.12;;;20.77;80.48
78431;BME280;67727;50.236;22.452;2023-06-24T02:38:38;99650.02;;;20.77;80.49
78431;BME280;67727;50.236;22.452;2023-06-24T02:41:05;99650.73;;;20.78;80.72
78431;BME280;67727;50.236;22.452;2023-06-24T02:43:32;99650.20;;;20.79;80.65
78431;BME280;67727;50.236;22.452;2023-06-24T02:46:03;99649.94;;;20.81;80.66
78431;BME280;67727;50.236;22.452;2023-06-24T02:48:33;99645.38;;;20.83;80.45
78431;BME280;67727;50.236;22.452;2023-06-24T02:51:02;99645.07;;;20.84;80.32
78431;BME280;67727;50.236;22.452;2023-06-24T02:53:30;99642.42;;;20.84;80.37
78431;BME280;67727;50.236;22.452;2023-06-24T02:55:58;99642.31;;;20.83;80.23
78431;BME280;67727;50.236;22.452;2023-06-24T02:58:25;99643.81;;;20.83;80.23
78431;BME280;67727;50.236;22.452;2023-06-24T03:01:01;99646.02;;;20.82;80.38
78431;BME280;67727;50.236;22.452;2023-06-24T03:03:30;99646.02;;;20.79;80.58
78431;BME280;67727;50.236;22.452;2023-06-24T03:05:58;99646.70;;;20.78;80.56
78431;BME280;67727;50.236;22.452;2023-06-24T03:08:27;99646.35;;;20.77;80.59
78431;BME280;67727;50.236;22.452;2023-06-24T03:10:55;99648.56;;;20.77;80.73
78431;BME280;67727;50.236;22.452;2023-06-24T03:13:23;99651.27;;;20.77;80.58
78431;BME280;67727;50.236;22.452;2023-06-24T03:15:50;99655.25;;;20.78;80.66
78431;BME280;67727;50.236;22.452;2023-06-24T03:18:17;99661.63;;;20.78;80.74
78431;BME280;67727;50.236;22.452;2023-06-24T03:20:44;99666.99;;;20.77;80.85
78431;BME280;67727;50.236;22.452;2023-06-24T03:23:12;99669.48;;;20.77;80.84
78431;BME280;67727;50.236;22.452;2023-06-24T03:25:41;99675.08;;;20.77;80.99
78431;BME280;67727;50.236;22.452;2023-06-24T03:28:08;99672.77;;;20.78;80.98
78431;BME280;67727;50.236;22.452;2023-06-24T03:30:35;99676.98;;;20.79;81.07
78431;BME280;67727;50.236;22.452;2023-06-24T03:33:02;99677.05;;;20.79;81.11
78431;BME280;67727;50.236;22.452;2023-06-24T03:35:29;99678.45;;;20.81;81.07
78431;BME280;67727;50.236;22.452;2023-06-24T03:37:58;99682.48;;;20.80;81.09
78431;BME280;67727;50.236;22.452;2023-06-24T03:40:25;99685.59;;;20.80;81.11
78431;BME280;67727;50.236;22.452;2023-06-24T03:42:52;99691.23;;;20.79;81.21
78431;BME280;67727;50.236;22.452;2023-06-24T03:45:19;99692.59;;;20.80;81.32
78431;BME280;67727;50.236;22.452;2023-06-24T03:47:46;99687.85;;;20.80;81.23
78431;BME280;67727;50.236;22.452;2023-06-24T03:50:12;99693.80;;;20.81;81.30
78431;BME280;67727;50.236;22.452;2023-06-24T03:52:39;99691.98;;;20.77;81.35
78431;BME280;67727;50.236;22.452;2023-06-24T03:55:06;99695.33;;;20.76;81.44
78431;BME280;67727;50.236;22.452;2023-06-24T03:57:33;99696.80;;;20.77;81.37
78431;BME280;67727;50.236;22.452;2023-06-24T04:00:00;99695.55;;;20.77;81.35
78431;BME280;67727;50.236;22.452;2023-06-24T04:02:27;99702.78;;;20.78;81.38
78431;BME280;67727;50.236;22.452;2023-06-24T04:04:56;99701.80;;;20.80;81.36
78431;BME280;67727;50.236;22.452;2023-06-24T04:07:23;99709.28;;;20.82;81.43
78431;BME280;67727;50.236;22.452;2023-06-24T04:09:55;99712.23;;;20.85;81.57
78431;BME280;67727;50.236;22.452;2023-06-24T04:12:23;99710.35;;;20.88;81.51
78431;BME280;67727;50.236;22.452;2023-06-24T04:14:50;99709.83;;;20.89;81.30
78431;BME280;67727;50.236;22.452;2023-06-24T04:17:17;99709.45;;;20.89;81.46
78431;BME280;67727;50.236;22.452;2023-06-24T04:19:44;99713.29;;;20.90;81.50
78431;BME280;67727;50.236;22.452;2023-06-24T04:22:11;99709.73;;;20.89;81.50
78431;BME280;67727;50.236;22.452;2023-06-24T04:24:38;99707.69;;;20.90;81.51
78431;BME280;67727;50.236;22.452;2023-06-24T04:27:07;99703.48;;;20.90;81.54
78431;BME280;67727;50.236;22.452;2023-06-24T04:29:34;99698.44;;;20.92;81.63
78431;BME280;67727;50.236;22.452;2023-06-24T04:32:01;99697.96;;;20.95;81.78
78431;BME280;67727;50.236;22.452;2023-06-24T04:34:28;99698.36;;;20.97;81.66
78431;BME280;67727;50.236;22.452;2023-06-24T04:36:55;99703.71;;;20.98;81.76
78431;BME280;67727;50.236;22.452;2023-06-24T04:39:22;99701.14;;;21.01;81.73
78431;BME280;67727;50.236;22.452;2023-06-24T04:41:49;99699.57;;;21.05;81.76
78431;BME280;67727;50.236;22.452;2023-06-24T04:44:16;99694.66;;;21.07;81.84
78431;BME280;67727;50.236;22.452;2023-06-24T04:46:43;99696.05;;;21.11;81.78
78431;BME280;67727;50.236;22.452;2023-06-24T04:49:10;99697.52;;;21.13;81.76
78431;BME280;67727;50.236;22.452;2023-06-24T04:51:37;99696.68;;;21.16;81.66
78431;BME280;67727;50.236;22.452;2023-06-24T04:54:04;99698.20;;;21.20;81.80
78431;BME280;67727;50.236;22.452;2023-06-24T04:56:33;99703.33;;;21.24;81.69
78431;BME280;67727;50.236;22.452;2023-06-24T04:59:01;99701.14;;;21.25;81.48
78431;BME280;67727;50.236;22.452;2023-06-24T05:01:28;99700.14;;;21.24;81.36
78431;BME280;67727;50.236;22.452;2023-06-24T05:03:55;99696.50;;;21.22;81.39
78431;BME280;67727;50.236;22.452;2023-06-24T05:06:22;99703.35;;;21.22;81.28
78431;BME280;67727;50.236;22.452;2023-06-24T05:08:49;99708.77;;;21.20;81.22
78431;BME280;67727;50.236;22.452;2023-06-24T05:11:16;99715.95;;;21.14;81.22
78431;BME280;67727;50.236;22.452;2023-06-24T05:13:42;99717.92;;;21.06;81.27
78431;BME280;67727;50.236;22.452;2023-06-24T05:16:10;99714.70;;;20.94;81.45
78431;BME280;67727;50.236;22.452;2023-06-24T05:18:37;99719.84;;;20.88;81.82
78431;BME280;67727;50.236;22.452;2023-06-24T05:21:03;99722.02;;;20.83;81.84
78431;BME280;67727;50.236;22.452;2023-06-24T05:23:30;99720.63;;;20.79;82.01
78431;BME280;67727;50.236;22.452;2023-06-24T05:25:57;99718.32;;;20.75;82.01
78431;BME280;67727;50.236;22.452;2023-06-24T05:28:24;99718.66;;;20.71;82.10
78431;BME280;67727;50.236;22.452;2023-06-24T05:30:51;99716.74;;;20.68;82.17
78431;BME280;67727;50.236;22.452;2023-06-24T05:33:18;99718.25;;;20.65;82.33
78431;BME280;67727;50.236;22.452;2023-06-24T05:35:45;99717.97;;;20.62;82.36
78431;BME280;67727;50.236;22.452;2023-06-24T05:38:12;99718.60;;;20.59;82.51
78431;BME280;67727;50.236;22.452;2023-06-24T05:40:39;99718.58;;;20.54;82.48
78431;BME280;67727;50.236;22.452;2023-06-24T05:43:06;99715.60;;;20.48;82.61
78431;BME280;67727;50.236;22.452;2023-06-24T05:45:33;99712.42;;;20.38;82.80
78431;BME280;67727;50.236;22.452;2023-06-24T05:48:00;99711.30;;;20.32;82.94
78431;BME280;67727;50.236;22.452;2023-06-24T05:50:27;99710.44;;;20.27;83.09
78431;BME280;67727;50.236;22.452;2023-06-24T05:52:54;99707.19;;;20.24;83.14
78431;BME280;67727;50.236;22.452;2023-06-24T05:55:20;99705.71;;;20.25;83.24
78431;BME280;67727;50.236;22.452;2023-06-24T05:57:48;99707.04;;;20.27;83.16
78431;BME280;67727;50.236;22.452;2023-06-24T06:00:17;99710.92;;;20.30;83.02
78431;BME280;67727;50.236;22.452;2023-06-24T06:02:45;99708.70;;;20.29;82.97
78431;BME280;67727;50.236;22.452;2023-06-24T06:05:11;99708.37;;;20.28;82.90
78431;BME280;67727;50.236;22.452;2023-06-24T06:07:38;99704.73;;;20.24;82.81
78431;BME280;67727;50.236;22.452;2023-06-24T06:10:06;99704.64;;;20.25;82.88
78431;BME280;67727;50.236;22.452;2023-06-24T06:12:33;99702.41;;;20.24;82.99
78431;BME280;67727;50.236;22.452;2023-06-24T06:15:00;99698.59;;;20.19;83.03
78431;BME280;67727;50.236;22.452;2023-06-24T06:17:27;99691.36;;;20.15;82.94
78431;BME280;67727;50.236;22.452;2023-06-24T06:19:54;99690.75;;;20.12;83.09
78431;BME280;67727;50.236;22.452;2023-06-24T06:22:21;99697.18;;;20.13;83.30
78431;BME280;67727;50.236;22.452;2023-06-24T06:24:48;99695.74;;;20.17;83.23
78431;BME280;67727;50.236;22.452;2023-06-24T06:27:15;99695.55;;;20.20;83.16
78431;BME280;67727;50.236;22.452;2023-06-24T06:29:44;99693.00;;;20.22;82.89
78431;BME280;67727;50.236;22.452;2023-06-24T06:32:11;99693.30;;;20.21;82.78
78431;BME280;67727;50.236;22.452;2023-06-24T06:34:38;99694.59;;;20.23;82.85
78431;BME280;67727;50.236;22.452;2023-06-24T06:37:05;99694.76;;;20.24;82.77
78431;BME280;67727;50.236;22.452;2023-06-24T06:39:32;99700.60;;;20.26;82.85
78431;BME280;67727;50.236;22.452;2023-06-24T06:41:59;99699.88;;;20.24;82.93
78431;BME280;67727;50.236;22.452;2023-06-24T06:44:26;99700.83;;;20.23;82.96
78431;BME280;67727;50.236;22.452;2023-06-24T06:46:53;99709.65;;;20.22;82.84
78431;BME280;67727;50.236;22.452;2023-06-24T06:49:20;99715.66;;;20.21;82.88
78431;BME280;67727;50.236;22.452;2023-06-24T06:51:47;99720.79;;;20.22;82.97
78431;BME280;67727;50.236;22.452;2023-06-24T06:54:14;99717.98;;;20.21;83.04
78431;BME280;67727;50.236;22.452;2023-06-24T06:56:41;99719.80;;;20.21;82.96
78431;BME280;67727;50.236;22.452;2023-06-24T06:59:08;99726.58;;;20.24;82.70
78431;BME280;67727;50.236;22.452;2023-06-24T07:01:35;99729.04;;;20.23;82.53
78431;BME280;67727;50.236;22.452;2023-06-24T07:04:02;99728.77;;;20.22;82.42
78431;BME280;67727;50.236;22.452;2023-06-24T07:06:29;99727.64;;;20.26;82.52
78431;BME280;67727;50.236;22.452;2023-06-24T07:08:56;99734.09;;;20.30;82.60
78431;BME280;67727;50.236;22.452;2023-06-24T07:11:23;99736.79;;;20.36;82.55
78431;BME280;67727;50.236;22.452;2023-06-24T07:13:51;99739.93;;;20.43;82.48
78431;BME280;67727;50.236;22.452;2023-06-24T07:16:18;99748.79;;;20.49;82.23
78431;BME280;67727;50.236;22.452;2023-06-24T07:18:45;99751.75;;;20.51;81.95
78431;BME280;67727;50.236;22.452;2023-06-24T07:21:14;99753.45;;;20.53;81.92
78431;BME280;67727;50.236;22.452;2023-06-24T07:23:41;99759.96;;;20.53;81.76
78431;BME280;67727;50.236;22.452;2023-06-24T07:26:08;99764.08;;;20.56;81.83
78431;BME280;67727;50.236;22.452;2023-06-24T07:28:35;99770.56;;;20.63;81.74
78431;BME280;67727;50.236;22.452;2023-06-24T07:31:02;99776.42;;;20.66;81.50
78431;BME280;67727;50.236;22.452;2023-06-24T07:33:29;99778.92;;;20.69;81.30
78431;BME280;67727;50.236;22.452;2023-06-24T07:35:57;99783.01;;;20.72;81.09
78431;BME280;67727;50.236;22.452;2023-06-24T07:38:24;99790.08;;;20.75;80.98
78431;BME280;67727;50.236;22.452;2023-06-24T07:40:51;99794.48;;;20.77;81.04
78431;BME280;67727;50.236;22.452;2023-06-24T07:43:18;99802.35;;;20.82;80.73
78431;BME280;67727;50.236;22.452;2023-06-24T07:45:45;99799.29;;;20.83;80.55
78431;BME280;67727;50.236;22.452;2023-06-24T07:48:11;99802.63;;;20.86;80.30
78431;BME280;67727;50.236;22.452;2023-06-24T07:50:39;99810.88;;;20.88;80.22
78431;BME280;67727;50.236;22.452;2023-06-24T07:53:06;99818.92;;;20.91;79.95
78431;BME280;67727;50.236;22.452;2023-06-24T07:55:33;99822.61;;;20.95;80.31
78431;BME280;67727;50.236;22.452;2023-06-24T07:57:59;99825.50;;;21.02;80.12
78431;BME280;67727;50.236;22.452;2023-06-24T08:00:26;99831.90;;;21.09;79.93
78431;BME280;67727;50.236;22.452;2023-06-24T08:02:53;99836.05;;;21.16;79.47
78431;BME280;67727;50.236;22.452;2023-06-24T08:05:21;99845.21;;;21.21;78.64
78431;BME280;67727;50.236;22.452;2023-06-24T08:07:50;99846.08;;;21.25;78.65
78431;BME280;67727;50.236;22.452;2023-06-24T08:10:17;99853.46;;;21.32;78.99
78431;BME280;67727;50.236;22.452;2023-06-24T08:12:44;99854.90;;;21.37;77.86
78431;BME280;67727;50.236;22.452;2023-06-24T08:15:11;99863.12;;;21.41;77.61
78431;BME280;67727;50.236;22.452;2023-06-24T08:17:38;99859.46;;;21.46;77.70
78431;BME280;67727;50.236;22.452;2023-06-24T08:20:08;99858.98;;;21.53;77.52
78431;BME280;67727;50.236;22.452;2023-06-24T08:22:35;99860.98;;;21.61;78.16
78431;BME280;67727;50.236;22.452;2023-06-24T08:25:02;99865.60;;;21.74;77.78
78431;BME280;67727;50.236;22.452;2023-06-24T08:27:29;99866.60;;;21.86;77.34
78431;BME280;67727;50.236;22.452;2023-06-24T08:29:56;99867.66;;;21.98;77.57
78431;BME280;67727;50.236;22.452;2023-06-24T08:32:23;99869.73;;;22.07;76.58
78431;BME280;67727;50.236;22.452;2023-06-24T08:34:50;99871.90;;;22.10;76.52
78431;BME280;67727;50.236;22.452;2023-06-24T08:37:17;99872.64;;;22.12;76.46
78431;BME280;67727;50.236;22.452;2023-06-24T08:39:44;99878.25;;;22.12;76.02
78431;BME280;67727;50.236;22.452;2023-06-24T08:42:11;99884.33;;;22.11;75.98
78431;BME280;67727;50.236;22.452;2023-06-24T08:44:38;99887.57;;;22.08;75.06
78431;BME280;67727;50.236;22.452;2023-06-24T08:47:05;99888.63;;;22.00;75.01
78431;BME280;67727;50.236;22.452;2023-06-24T08:49:34;99891.79;;;21.95;75.75
78431;BME280;67727;50.236;22.452;2023-06-24T08:52:08;99895.12;;;21.93;75.51
78431;BME280;67727;50.236;22.452;2023-06-24T08:54:39;99891.21;;;21.89;75.37
78431;BME280;67727;50.236;22.452;2023-06-24T08:57:07;99888.41;;;21.86;75.45
78431;BME280;67727;50.236;22.452;2023-06-24T08:59:36;99888.86;;;21.85;75.75
78431;BME280;67727;50.236;22.452;2023-06-24T09:02:04;99893.52;;;21.87;75.53
78431;BME280;67727;50.236;22.452;2023-06-24T09:04:34;99894.20;;;21.91;75.85
78431;BME280;67727;50.236;22.452;2023-06-24T09:07:01;99890.44;;;21.95;75.09
78431;BME280;67727;50.236;22.452;2023-06-24T09:09:28;99895.33;;;21.97;75.07
78431;BME280;67727;50.236;22.452;2023-06-24T09:11:57;99895.96;;;21.99;75.03
78431;BME280;67727;50.236;22.452;2023-06-24T09:14:27;99899.26;;;22.03;74.76
78431;BME280;67727;50.236;22.452;2023-06-24T09:16:55;99901.45;;;22.11;74.82
78431;BME280;67727;50.236;22.452;2023-06-24T09:19:23;99902.11;;;22.15;73.82
78431;BME280;67727;50.236;22.452;2023-06-24T09:21:50;99899.38;;;22.17;73.79
78431;BME280;67727;50.236;22.452;2023-06-24T09:24:20;99900.80;;;22.18;74.05
78431;BME280;67727;50.236;22.452;2023-06-24T09:26:49;99895.50;;;22.20;73.74
78431;BME280;67727;50.236;22.452;2023-06-24T09:29:16;99895.35;;;22.21;73.18
78431;BME280;67727;50.236;22.452;2023-06-24T09:31:49;99896.61;;;22.24;73.32
78431;BME280;67727;50.236;22.452;2023-06-24T09:34:19;99897.29;;;22.29;73.60
78431;BME280;67727;50.236;22.452;2023-06-24T09:36:51;99901.70;;;22.34;73.04
78431;BME280;67727;50.236;22.452;2023-06-24T09:39:19;99902.78;;;22.35;73.15
78431;BME280;67727;50.236;22.452;2023-06-24T09:41:57;99905.48;;;22.34;72.70
78431;BME280;67727;50.236;22.452;2023-06-24T09:44:25;99906.20;;;22.28;71.89
78431;BME280;67727;50.236;22.452;2023-06-24T09:46:52;99909.45;;;22.22;72.13
78431;BME280;67727;50.236;22.452;2023-06-24T09:49:19;99917.05;;;22.18;71.96
78431;BME280;67727;50.236;22.452;2023-06-24T09:51:49;99918.86;;;22.16;72.34
78431;BME280;67727;50.236;22.452;2023-06-24T09:54:17;99924.54;;;22.20;72.55
78431;BME280;67727;50.236;22.452;2023-06-24T09:56:51;99929.05;;;22.25;72.41
78431;BME280;67727;50.236;22.452;2023-06-24T09:59:20;99931.15;;;22.32;72.51
78431;BME280;67727;50.236;22.452;2023-06-24T10:01:49;99935.45;;;22.38;71.45
78431;BME280;67727;50.236;22.452;2023-06-24T10:04:20;99931.92;;;22.37;70.57
78431;BME280;67727;50.236;22.452;2023-06-24T10:06:49;99928.90;;;22.37;70.56
78431;BME280;67727;50.236;22.452;2023-06-24T10:09:16;99933.65;;;22.40;71.23
78431;BME280;67727;50.236;22.452;2023-06-24T10:11:46;99934.91;;;22.45;71.08
78431;BME280;67727;50.236;22.452;2023-06-24T10:14:15;99936.32;;;22.50;69.97
78431;BME280;67727;50.236;22.452;2023-06-24T10:16:42;99936.52;;;22.52;70.21
78431;BME280;67727;50.236;22.452;2023-06-24T10:19:10;99937.70;;;22.60;70.23
78431;BME280;67727;50.236;22.452;2023-06-24T10:22:00;99939.09;;;22.66;70.56
78431;BME280;67727;50.236;22.452;2023-06-24T10:27:01;99941.38;;;22.79;68.50
78431;BME280;67727;50.236;22.452;2023-06-24T10:29:38;99938.90;;;22.84;68.45
78431;BME280;67727;50.236;22.452;2023-06-24T10:32:07;99938.23;;;22.84;68.28
78431;BME280;67727;50.236;22.452;2023-06-24T10:34:42;99943.64;;;22.86;68.95
78431;BME280;67727;50.236;22.452;2023-06-24T10:42:31;99946.92;;;22.88;66.65
78431;BME280;67727;50.236;22.452;2023-06-24T10:47:43;99946.00;;;22.73;67.10
78431;BME280;67727;50.236;22.452;2023-06-24T10:50:13;99942.27;;;22.71;67.43
78431;BME280;67727;50.236;22.452;2023-06-24T10:52:48;99943.36;;;22.74;68.11
78431;BME280;67727;50.236;22.452;2023-06-24T10:55:18;99945.48;;;22.79;67.09
78431;BME280;67727;50.236;22.452;2023-06-24T10:57:45;99942.02;;;22.83;67.76
78431;BME280;67727;50.236;22.452;2023-06-24T11:00:13;99945.27;;;22.94;68.24
78431;BME280;67727;50.236;22.452;2023-06-24T11:02:40;99945.77;;;23.08;68.29
78431;BME280;67727;50.236;22.452;2023-06-24T11:05:07;99949.09;;;23.21;67.57
78431;BME280;67727;50.236;22.452;2023-06-24T11:07:37;99939.67;;;23.25;67.07
78431;BME280;67727;50.236;22.452;2023-06-24T11:12:37;99935.15;;;23.38;66.27
78431;BME280;67727;50.236;22.452;2023-06-24T11:15:07;99940.05;;;23.45;66.62
78431;BME280;67727;50.236;22.452;2023-06-24T11:17:35;99935.19;;;23.56;66.44
78431;BME280;67727;50.236;22.452;2023-06-24T11:20:09;99941.52;;;23.70;66.08
78431;BME280;67727;50.236;22.452;2023-06-24T11:22:39;99940.19;;;23.80;65.01
78431;BME280;67727;50.236;22.452;2023-06-24T11:25:06;99943.93;;;23.85;65.20
78431;BME280;67727;50.236;22.452;2023-06-24T11:27:33;99945.17;;;23.92;65.49
78431;BME280;67727;50.236;22.452;2023-06-24T11:30:00;99945.51;;;23.93;63.99
78431;BME280;67727;50.236;22.452;2023-06-24T11:32:39;99943.04;;;23.82;63.40
78431;BME280;67727;50.236;22.452;2023-06-24T11:35:09;99944.05;;;23.71;64.19
78431;BME280;67727;50.236;22.452;2023-06-24T11:37:37;99945.98;;;23.66;64.42
78431;BME280;67727;50.236;22.452;2023-06-24T11:40:04;99944.52;;;23.63;64.32
78431;BME280;67727;50.236;22.452;2023-06-24T11:42:41;99943.10;;;23.61;63.96
78431;BME280;67727;50.236;22.452;2023-06-24T11:45:10;99947.06;;;23.62;64.17
78431;BME280;67727;50.236;22.452;2023-06-24T11:47:38;99946.14;;;23.63;64.52
78431;BME280;67727;50.236;22.452;2023-06-24T11:50:07;99946.06;;;23.61;63.96
78431;BME280;67727;50.236;22.452;2023-06-24T11:52:44;99944.63;;;23.59;64.77
78431;BME280;67727;50.236;22.452;2023-06-24T11:55:21;99948.73;;;23.61;65.06
78431;BME280;67727;50.236;22.452;2023-06-24T11:58:05;99948.20;;;23.58;65.30
78431;BME280;67727;50.236;22.452;2023-06-24T12:00:37;99948.49;;;23.56;65.11
78431;BME280;67727;50.236;22.452;2023-06-24T12:03:06;99940.36;;;23.49;63.75
78431;BME280;67727;50.236;22.452;2023-06-24T12:05:35;99942.98;;;23.40;62.83
78431;BME280;67727;50.236;22.452;2023-06-24T12:08:05;99942.23;;;23.30;62.70
78431;BME280;67727;50.236;22.452;2023-06-24T12:10:33;99942.88;;;23.21;63.23
78431;BME280;67727;50.236;22.452;2023-06-24T12:13:04;99942.90;;;23.18;63.70
78431;BME280;67727;50.236;22.452;2023-06-24T12:15:32;99944.81;;;23.16;64.11
78431;BME280;67727;50.236;22.452;2023-06-24T12:17:59;99947.16;;;23.17;63.57
78431;BME280;67727;50.236;22.452;2023-06-24T12:20:27;99952.48;;;23.15;63.20
78431;BME280;67727;50.236;22.452;2023-06-24T12:22:55;99953.36;;;23.12;63.27
78431;BME280;67727;50.236;22.452;2023-06-24T12:25:22;99953.47;;;23.11;64.07
78431;BME280;67727;50.236;22.452;2023-06-24T12:27:50;99954.42;;;23.13;64.61
78431;BME280;67727;50.236;22.452;2023-06-24T12:30:17;99955.66;;;23.13;64.52
78431;BME280;67727;50.236;22.452;2023-06-24T12:32:44;99960.80;;;23.15;64.46
78431;BME280;67727;50.236;22.452;2023-06-24T12:35:12;99960.56;;;23.17;64.35
78431;BME280;67727;50.236;22.452;2023-06-24T12:37:39;99961.64;;;23.17;64.67
78431;BME280;67727;50.236;22.452;2023-06-24T12:40:07;99962.84;;;23.17;65.27
78431;BME280;67727;50.236;22.452;2023-06-24T12:42:34;99961.31;;;23.17;65.18
78431;BME280;67727;50.236;22.452;2023-06-24T12:45:04;99965.38;;;23.16;65.10
78431;BME280;67727;50.236;22.452;2023-06-24T12:47:32;99974.61;;;23.16;65.20
78431;BME280;67727;50.236;22.452;2023-06-24T12:49:59;99973.78;;;23.14;64.31
78431;BME280;67727;50.236;22.452;2023-06-24T12:52:26;99973.17;;;23.03;64.14
78431;BME280;67727;50.236;22.452;2023-06-24T12:54:53;99972.59;;;22.91;64.87
78431;BME280;67727;50.236;22.452;2023-06-24T12:57:20;99973.11;;;22.80;65.35
78431;BME280;67727;50.236;22.452;2023-06-24T12:59:47;99978.15;;;22.69;65.92
78431;BME280;67727;50.236;22.452;2023-06-24T13:02:13;99976.90;;;22.61;66.45
78431;BME280;67727;50.236;22.452;2023-06-24T13:04:40;99978.34;;;22.52;66.60
78431;BME280;67727;50.236;22.452;2023-06-24T13:07:07;99978.91;;;22.46;67.34
78431;BME280;67727;50.236;22.452;2023-06-24T13:09:36;99977.96;;;22.49;68.22
78431;BME280;67727;50.236;22.452;2023-06-24T13:12:03;99982.54;;;22.55;68.21
78431;BME280;67727;50.236;22.452;2023-06-24T13:14:31;99982.75;;;22.58;67.68
78431;BME280;67727;50.236;22.452;2023-06-24T13:17:00;99981.08;;;22.55;67.36
78431;BME280;67727;50.236;22.452;2023-06-24T13:19:27;99979.95;;;22.56;67.77
78431;BME280;67727;50.236;22.452;2023-06-24T13:21:56;99971.37;;;22.60;68.19